Latest Weather Observations for Samuel Hill

IDQ60801

Issued at 5:32 pm EST Wednesday 1 April 2015 (issued every 30 minutes, with the page automatically refreshed every 10 minutes)

About weather observations | Map of weather stations | Latest weather observations for QLD | Other Formats
Station Details ID: 033308 Name: SAMUEL HILL AERO Lat: -22.74 Lon: 150.66 Height: 31.0 m
Data from the previous 72 hours. | See also: Recent months at Samuel Hill
Date/Time
EST
Temp
°C
App
Temp
°C
Dew
Point
Rel
Hum
%
Delta-T
°C
Wind Press
QNH
hPa
Press
MSL
hPa
Rain
since 9 am
mm
Dir
 
Spd
km/h
Gust
km/h
Spd
kts
Gust
kts
01/05:05pm 22.0 22.6 20.3 90 1.1 SSE 17 28 9 15 1014.7 1014.6 37.0
01/05:00pm 22.5 23.9 20.4 88 1.4 S 13 19 7 10 1014.6 1014.5 37.0
01/04:30pm 22.2 24.1 20.5 90 1.1 S 11 15 6 8 1014.2 1014.0 37.0
01/04:00pm 21.5 22.8 20.1 92 0.9 SSW 13 19 7 10 1014.2 1014.0 37.0
01/03:58pm 21.6 22.9 20.2 92 0.9 SSW 13 19 7 10 1014.2 1014.0 37.0
01/03:30pm 21.5 24.0 20.3 93 0.8 SSW 7 9 4 5 1014.4 1014.3 37.0
01/03:22pm 21.3 24.0 20.3 94 0.6 S 6 9 3 5 1014.6 1014.5 37.0
01/03:02pm 21.1 23.7 20.1 94 0.6 SE 6 9 3 5 1014.7 1014.6 36.8
01/03:00pm 21.0 23.6 20.0 94 0.6 SE 6 9 3 5 1014.8 1014.7 36.8
01/02:34pm 21.0 21.9 20.0 94 0.6 SSE 15 20 8 11 1014.9 1014.8 33.0
01/02:30pm 21.0 22.2 20.0 94 0.6 SSE 13 22 7 12 1014.9 1014.8 32.4
01/02:16pm 20.8 22.0 19.8 94 0.6 SSE 13 20 7 11 1014.8 1014.7 30.8
01/02:11pm 21.0 22.2 20.0 94 0.6 SSE 13 19 7 10 1014.9 1014.8 29.2
01/02:00pm 20.9 22.5 19.9 94 0.6 SE 11 19 6 10 1015.0 1014.9 27.8
01/01:30pm 21.0 21.9 20.0 94 0.6 SE 15 26 8 14 1015.2 1015.1 21.6
01/01:00pm 21.7 23.6 20.5 93 0.8 SSE 11 17 6 9 1015.5 1015.4 14.4
01/12:30pm 21.7 23.9 20.3 92 0.9 SE 9 15 5 8 1015.9 1015.8 9.0
01/12:23pm 22.0 23.9 20.6 92 0.9 SE 11 15 6 8 1016.0 1015.9 7.0
01/12:17pm 22.1 24.4 20.6 91 1.0 ESE 9 13 5 7 1016.1 1016.0 6.2
01/12:00pm 22.1 23.2 20.4 90 1.1 ESE 15 20 8 11 1016.3 1016.2 5.0
01/11:36am 23.0 24.3 20.9 88 1.4 ESE 15 22 8 12 1016.4 1016.3 4.4
01/11:30am 23.3 25.2 20.6 85 1.8 SE 11 17 6 9 1016.4 1016.3 4.4
01/11:24am 23.6 25.9 21.3 87 1.5 SE 11 17 6 9 1016.5 1016.4 4.4
01/11:15am 23.2 25.6 21.5 90 1.1 SE 11 17 6 9 1016.7 1016.6 4.4
01/11:00am 22.3 23.6 20.8 91 1.0 SSE 15 22 8 12 1016.8 1016.7 4.2
01/10:51am 22.2 23.8 20.8 92 0.9 SE 13 19 7 10 1017.1 1017.0 3.6
01/10:30am 22.3 24.3 20.8 91 1.0 SSE 11 19 6 10 1017.4 1017.3 2.4
01/10:20am 22.6 24.2 20.7 89 1.2 SSE 13 17 7 9 1017.6 1017.5 2.0
01/10:00am 22.7 25.2 21.0 90 1.1 SSE 9 17 5 9 1017.3 1017.2 1.8
01/09:52am 22.3 24.7 20.9 92 0.9 S 9 15 5 8 1017.4 1017.2 1.8
01/09:47am 22.1 24.5 20.9 93 0.8 S 9 15 5 8 1017.5 1017.3 1.8
01/09:30am 21.4 23.0 20.0 92 0.9 S 11 19 6 10 1017.8 1017.6 1.8
01/09:25am 21.3 23.6 19.9 92 0.9 SSW 7 19 4 10 1017.9 1017.7 1.6
01/09:00am 21.4 23.0 20.0 92 0.9 S 11 15 6 8 1017.9 1017.7 9.8
01/08:58am 21.6 23.7 20.2 92 0.9 SSW 9 15 5 8 1017.8 1017.6 9.6
01/08:57am 21.5 23.2 20.1 92 0.9 SSW 11 15 6 8 1017.8 1017.6 9.6
01/08:30am 21.3 22.2 20.1 93 0.8 SSE 15 24 8 13 1017.4 1017.2 9.6
01/08:00am 21.3 21.7 19.8 91 1.0 SSE 17 20 9 11 1017.3 1017.1 9.0
01/07:30am 21.6 23.3 20.2 92 0.9 SSW 11 17 6 9 1017.0 1016.8 9.0
01/07:00am 21.5 23.9 20.0 91 1.0 SSW 7 11 4 6 1016.8 1016.6 9.0
01/06:51am 21.4 23.3 19.7 90 1.1 SSW 9 13 5 7 1016.7 1016.5 9.0
01/06:30am 21.4 23.4 19.9 91 1.0 ESE 9 20 5 11 1016.5 1016.3 8.8
01/06:27am 21.4 23.3 19.7 90 1.1 SE 9 20 5 11 1016.4 1016.2 8.8
01/06:12am 21.2 23.4 19.5 90 1.1 S 7 13 4 7 1016.2 1016.0 8.6
01/06:00am 21.5 23.6 20.1 92 0.9 E 9 15 5 8 1016.1 1015.9 8.6
01/05:30am 21.1 22.1 19.4 90 1.1 S 13 26 7 14 1016.3 1016.1 8.2
01/05:24am 21.4 23.4 19.9 91 1.0 SSW 9 11 5 6 1016.2 1016.0 8.0
01/05:00am 21.5 23.5 20.0 91 1.0 S 9 13 5 7 1015.9 1015.7 7.8
01/04:39am 21.7 23.7 20.0 90 1.1 SSE 9 15 5 8 1015.5 1015.3 7.8
01/04:31am 21.6 23.7 20.1 91 1.0 SE 9 17 5 9 1015.5 1015.3 7.6
01/04:30am 21.7 23.9 20.3 92 0.9 SE 9 17 5 9 1015.5 1015.3 7.6
01/04:00am 21.9 24.2 20.7 93 0.8 SSE 9 11 5 6 1015.2 1015.0 6.8
01/03:59am 21.9 24.2 20.7 93 0.8 SSE 9 11 5 6 1015.2 1015.0 6.6
01/03:39am 21.7 25.3 20.5 93 0.8 ESE 2 11 1 6 1015.2 1015.0 6.2
01/03:30am 21.6 24.2 20.4 93 0.8 E 7 13 4 7 1014.9 1014.7 6.2
01/03:00am 21.9 22.7 20.7 93 0.8 E 17 32 9 17 1015.3 1015.1 5.6
01/02:30am 21.3 23.4 20.1 93 0.8 S 9 13 5 7 1015.8 1015.6 3.8
01/02:09am 21.1 22.2 19.7 92 0.9 S 13 17 7 9 1016.0 1015.8 3.2
01/02:00am 20.6 21.5 18.5 88 1.3 S 11 17 6 9 1016.2 1016.0 3.0
01/01:30am 21.5 22.3 18.1 81 2.1 SE 11 15 6 8 1016.4 1016.2 2.6
01/01:00am 22.0 23.4 17.8 77 2.6 SSE 7 11 4 6 1017.4 1017.2 2.6
01/12:30am 22.7 24.0 18.5 77 2.6 SW 9 11 5 6 1017.8 1017.6 2.4
01/12:00am 22.8 24.1 19.2 80 2.3 SSE 11 13 6 7 1017.2 1017.0 2.4
 
Date/Time
EST
Temp
°C
App
Temp
°C
Dew
Point
Rel
Hum
%
Delta-T
°C
Wind Press
QNH
hPa
Press
MSL
hPa
Rain
since 9 am
mm
Dir
 
Spd
km/h
Gust
km/h
Spd
kts
Gust
kts
31/11:30pm 22.8 24.7 19.8 83 1.9 SE 9 11 5 6 1017.5 1017.3 2.4
31/11:00pm 23.0 25.5 20.3 85 1.7 SE 7 11 4 6 1017.9 1017.7 2.2
31/10:30pm 23.4 25.6 20.3 83 2.0 SE 9 15 5 8 1018.2 1018.0 2.2
31/10:00pm 23.8 25.1 20.1 80 2.4 SE 13 22 7 12 1018.4 1018.2 2.2
31/09:30pm 23.6 24.7 19.7 79 2.5 E 13 26 7 14 1018.3 1018.1 2.2
31/09:00pm 23.4 23.3 19.5 79 2.5 ESE 19 28 10 15 1018.4 1018.2 2.2
31/08:30pm 23.3 24.2 19.2 78 2.6 ESE 13 20 7 11 1018.6 1018.4 2.2
31/08:00pm 23.0 23.2 19.4 80 2.3 ESE 17 26 9 14 1018.6 1018.4 2.2
31/07:30pm 22.6 23.1 20.1 86 1.6 E 17 30 9 16 1018.0 1017.8 2.2
31/07:14pm 22.5 23.2 20.4 88 1.4 E 17 32 9 17 1017.7 1017.5 2.2
31/07:00pm 22.4 23.1 20.5 89 1.2 E 17 28 9 15 1017.8 1017.6 2.2
31/06:37pm 22.7 23.3 20.2 86 1.6 ESE 17 28 9 15 1017.7 1017.5 1.4
31/06:30pm 22.9 23.6 20.4 86 1.6 ESE 17 28 9 15 1017.6 1017.4 1.0
31/06:00pm 22.0 23.5 20.6 92 0.9 SE 13 19 7 10 1017.3 1017.1 1.0
31/05:46pm 21.8 23.6 20.4 92 0.9 ESE 11 17 6 9 1017.1 1016.9 1.0
31/05:30pm 21.8 23.1 20.1 90 1.1 ESE 13 19 7 10 1017.0 1016.8 1.0
31/05:13pm 22.1 22.6 20.0 88 1.3 ESE 17 30 9 16 1017.0 1016.8 0.6
31/05:00pm 22.4 23.8 20.3 88 1.4 E 13 20 7 11 1016.8 1016.6 0.2
31/04:54pm 22.6 24.2 20.7 89 1.2 E 13 20 7 11 1016.7 1016.5 0.2
31/04:30pm 22.9 23.9 21.0 89 1.2 ESE 17 26 9 14 1016.4 1016.2 0.0
31/04:29pm 22.9 24.3 21.0 89 1.2 ESE 15 26 8 14 1016.4 1016.2 0.0
31/04:00pm 23.6 23.9 19.5 78 2.6 SE 17 28 9 15 1016.6 1016.4 0.0
31/03:30pm 23.8 24.0 20.1 80 2.4 SSE 19 28 10 15 1016.5 1016.3 0.0
31/03:00pm 24.0 24.3 20.7 82 2.2 SE 20 35 11 19 1016.4 1016.2 0.0
31/02:30pm 25.3 26.9 21.4 79 2.6 SE 15 28 8 15 1016.6 1016.4 0.0
31/02:00pm 25.2 26.9 21.7 81 2.3 SE 15 26 8 14 1016.9 1016.7 0.0
31/01:30pm 24.8 26.9 21.7 83 2.1 ESE 13 19 7 10 1017.1 1016.9 0.0
31/01:24pm 24.5 26.1 21.4 83 2.0 ESE 15 22 8 12 1017.2 1017.0 0.0
31/01:11pm 24.3 24.4 20.4 79 2.5 ESE 20 35 11 19 1017.4 1017.2 0.0
31/01:00pm 26.3 26.4 20.4 70 3.9 ESE 20 30 11 16 1017.3 1017.1 0.0
31/12:30pm 27.3 26.4 19.9 64 4.8 ESE 24 35 13 19 1017.7 1017.5 0.0
31/12:00pm 26.5 27.1 21.0 72 3.6 SSE 19 28 10 15 1018.1 1017.9 0.0
31/11:30am 27.2 27.5 20.5 67 4.4 ESE 19 35 10 19 1018.5 1018.3 0.0
31/11:00am 26.7 25.9 20.1 67 4.3 ESE 24 35 13 19 1018.8 1018.6 0.0
31/10:30am 26.9 27.2 20.7 69 4.1 ESE 20 32 11 17 1019.2 1019.0 0.0
31/10:00am 27.6 26.3 19.1 59 5.5 SE 24 33 13 18 1019.4 1019.2 0.0
31/09:30am 27.7 26.4 19.0 59 5.6 ESE 24 41 13 22 1019.2 1019.0 0.0
31/09:00am 27.0 26.5 19.1 62 5.1 SE 20 32 11 17 1019.1 1018.9 0.0
31/08:30am 27.2 27.2 19.8 64 4.8 SE 19 28 10 15 1019.2 1019.0 0.0
31/08:00am 26.6 26.4 18.5 61 5.2 SE 17 28 9 15 1019.0 1018.8 0.0
31/07:30am 25.9 26.8 18.3 63 4.8 SE 11 19 6 10 1018.7 1018.5 0.0
31/07:00am 24.9 25.7 18.1 66 4.3 SE 11 19 6 10 1018.3 1018.1 0.0
31/06:30am 23.7 24.6 18.4 72 3.3 SE 11 15 6 8 1018.1 1017.9 0.0
31/06:00am 23.9 24.8 18.3 71 3.5 SE 11 17 6 9 1017.9 1017.7 0.0
31/05:30am 24.2 24.8 18.6 71 3.5 SE 13 22 7 12 1017.6 1017.4 0.0
31/05:00am 24.4 25.1 18.8 71 3.6 ESE 13 22 7 12 1017.5 1017.3 0.0
31/04:30am 24.0 25.2 19.1 74 3.1 SE 11 15 6 8 1017.4 1017.2 0.0
31/04:00am 23.6 25.1 18.9 75 3.0 ESE 9 13 5 7 1017.3 1017.1 0.0
31/03:30am 23.9 25.2 19.2 75 3.0 SE 11 17 6 9 1017.3 1017.1 0.0
31/03:00am 24.3 24.7 19.1 73 3.3 SE 15 22 8 12 1017.2 1017.0 0.0
31/02:30am 24.3 25.3 19.4 74 3.1 SE 13 20 7 11 1017.5 1017.3 0.0
31/02:00am 24.3 25.7 19.6 75 3.0 SE 11 17 6 9 1017.8 1017.6 0.0
31/01:30am 24.6 26.2 19.9 75 3.0 SE 11 19 6 10 1018.3 1018.1 0.0
31/01:00am 24.5 26.6 20.2 77 2.8 SE 9 13 5 7 1018.7 1018.5 0.0
31/12:30am 24.3 27.0 20.2 78 2.7 SE 6 9 3 5 1019.0 1018.8 0.0
31/12:00am 24.5 26.2 20.2 77 2.8 SSE 11 15 6 8 1019.1 1018.9 0.0
 
Date/Time
EST
Temp
°C
App
Temp
°C
Dew
Point
Rel
Hum
%
Delta-T
°C
Wind Press
QNH
hPa
Press
MSL
hPa
Rain
since 9 am
mm
Dir
 
Spd
km/h
Gust
km/h
Spd
kts
Gust
kts
30/11:30pm 24.0 26.3 19.9 78 2.6 SE 7 11 4 6 1019.5 1019.3 0.0
30/11:00pm 23.7 26.1 19.6 78 2.6 SE 6 9 3 5 1019.7 1019.5 0.0
30/10:30pm 23.9 26.1 19.6 77 2.8 SSE 7 11 4 6 1019.9 1019.7 0.0
30/10:00pm 24.2 26.1 19.7 76 2.9 SE 9 11 5 6 1020.2 1020.0 0.0
30/09:30pm 24.5 26.3 19.6 74 3.2 SE 9 17 5 9 1020.1 1019.9 0.0
30/09:00pm 25.0 26.1 19.6 72 3.5 SE 13 20 7 11 1020.0 1019.8 0.0
30/08:30pm 25.1 26.2 19.7 72 3.5 ESE 13 22 7 12 1019.9 1019.7 0.0
30/08:00pm 24.9 25.8 19.3 71 3.6 SE 13 19 7 10 1019.8 1019.6 0.0
30/07:30pm 25.1 25.6 19.2 70 3.8 ESE 15 22 8 12 1019.6 1019.4 0.0
30/07:00pm 25.3 25.5 19.4 70 3.8 SE 17 24 9 13 1019.1 1018.9 0.0
30/06:30pm 25.3 25.9 19.4 70 3.8 SE 15 22 8 12 1018.9 1018.7 0.0
30/06:00pm 25.7 25.9 19.3 67 4.1 ESE 17 24 9 13 1018.8 1018.6 0.0
30/05:30pm 26.1 26.8 19.7 68 4.1 SE 15 24 8 13 1018.5 1018.3 0.0
30/05:00pm 26.8 26.8 20.2 67 4.3 SE 20 35 11 19 1018.4 1018.2 0.0
30/04:30pm 27.2 27.3 20.3 66 4.5 ESE 20 30 11 16 1018.1 1017.9 0.0
30/04:00pm 27.2 26.9 20.3 66 4.5 SE 22 37 12 20 1017.9 1017.7 0.0
30/03:30pm 27.2 26.9 20.3 66 4.5 ESE 22 37 12 20 1017.7 1017.5 0.0
30/03:00pm 27.5 26.8 19.6 62 5.1 SE 22 33 12 18 1017.4 1017.2 0.0
30/02:30pm 28.3 27.5 20.1 61 5.4 ESE 24 35 13 19 1017.3 1017.1 0.0
30/02:00pm 28.6 27.4 20.1 60 5.6 SE 26 41 14 22 1017.7 1017.5 0.0
30/01:30pm 28.6 28.2 20.1 60 5.6 ESE 22 33 12 18 1017.9 1017.7 0.0
30/01:00pm 28.2 27.1 19.4 59 5.7 ESE 24 37 13 20 1018.4 1018.2 0.0
30/12:30pm 28.0 27.1 19.8 61 5.4 SE 24 41 13 22 1018.8 1018.6 0.0
30/12:00pm 28.0 27.3 20.3 63 5.1 ESE 24 37 13 20 1019.1 1018.9 0.0
30/11:30am 28.4 28.7 20.7 63 5.1 SE 20 37 11 20 1019.7 1019.5 0.0
30/11:00am 28.0 27.4 20.6 64 4.9 SE 24 37 13 20 1019.9 1019.7 0.0
30/10:30am 29.0 29.9 22.0 66 4.7 ESE 20 32 11 17 1020.2 1020.0 0.0
30/10:00am 28.2 28.0 20.5 63 5.1 SE 22 33 12 18 1020.4 1020.2 0.0
30/09:30am 28.0 28.5 20.8 65 4.8 ESE 19 32 10 17 1020.5 1020.3 0.0
30/09:00am 27.2 27.5 20.5 67 4.4 ESE 19 30 10 16 1020.4 1020.2 23.6
30/08:30am 26.8 27.0 20.6 69 4.1 ESE 20 30 11 16 1020.3 1020.1 23.6
30/08:00am 26.7 28.1 21.0 71 3.8 ESE 15 22 8 12 1019.9 1019.7 23.6
30/07:30am 25.5 27.3 21.2 77 2.8 SE 13 20 7 11 1019.6 1019.4 23.6
30/07:00am 24.8 26.5 20.9 79 2.6 SE 13 20 7 11 1019.2 1019.0 23.6
30/06:30am 24.3 26.3 20.8 81 2.3 ESE 11 19 6 10 1019.0 1018.8 23.6
30/06:00am 24.2 26.2 20.7 81 2.3 ESE 11 19 6 10 1018.8 1018.6 23.6
30/05:30am 24.1 26.1 20.8 82 2.2 SE 11 15 6 8 1018.6 1018.4 23.6
30/05:00am 24.1 26.1 20.8 82 2.2 ESE 11 17 6 9 1018.2 1018.0 23.6
30/04:30am 24.2 26.3 20.9 82 2.2 SE 11 17 6 9 1018.2 1018.0 23.6
30/04:00am 23.9 26.8 21.0 84 1.9 SE 7 11 4 6 1018.1 1017.9 23.6
30/03:30am 23.6 26.0 20.9 85 1.8 S 9 11 5 6 1017.9 1017.7 23.6
30/03:00am 23.9 25.9 20.8 83 2.0 SSE 11 15 6 8 1017.9 1017.7 23.6
30/02:30am 23.9 26.2 20.6 82 2.2 SE 9 15 5 8 1018.0 1017.8 23.6
30/02:00am 23.9 26.0 21.0 84 1.9 ESE 11 17 6 9 1018.1 1017.9 23.6
30/01:30am 23.7 26.6 21.8 89 1.3 SE 9 13 5 7 1018.6 1018.4 23.6
30/01:00am 23.4 26.2 21.5 89 1.3 SSE 9 11 5 6 1019.0 1018.8 23.6
30/12:30am 23.4 25.9 21.7 90 1.1 SSE 11 15 6 8 1019.4 1019.2 23.6
30/12:00am 23.4 26.3 21.7 90 1.1 S 9 13 5 7 1019.6 1019.4 23.6
 
Date/Time
EST
Temp
°C
App
Temp
°C
Dew
Point
Rel
Hum
%
Delta-T
°C
Wind Press
QNH
hPa
Press
MSL
hPa
Rain
since 9 am
mm
Dir
 
Spd
km/h
Gust
km/h
Spd
kts
Gust
kts
29/11:30pm 23.1 26.3 21.7 92 0.9 SSW 7 9 4 5 1019.9 1019.7 23.6
29/11:00pm 23.4 26.8 22.0 92 0.9 E 7 11 4 6 1020.3 1020.1 23.6
29/10:41pm 23.0 25.8 21.6 92 0.9 ESE 9 15 5 8 1020.3 1020.1 23.6
29/10:30pm 22.8 25.5 21.4 92 0.9 E 9 17 5 9 1020.4 1020.2 23.4
29/10:00pm 22.7 25.9 21.7 94 0.7 S 7 11 4 6 1020.3 1020.1 17.6
29/09:59pm 22.7 25.9 21.7 94 0.7 S 7 11 4 6 1020.3 1020.1 17.6
29/09:51pm 22.7 26.0 21.5 93 0.8 S 6 9 3 5 1020.4 1020.2 17.4
29/09:32pm 22.6 25.3 21.4 93 0.8 S 9 13 5 7 1020.4 1020.2 17.4
29/09:30pm 22.6 25.2 21.2 92 0.9 SSE 9 13 5 7 1020.4 1020.2 17.2
29/09:14pm 22.6 24.4 21.2 92 0.9 SSE 13 19 7 10 1020.6 1020.4 17.2
29/09:00pm 22.6 23.8 21.4 93 0.8 SSE 17 28 9 15 1020.6 1020.4 17.2
29/08:30pm 22.8 25.2 21.6 93 0.8 S 11 17 6 9 1020.4 1020.2 14.0
29/08:28pm 22.9 25.8 21.7 93 0.8 S 9 17 5 9 1020.4 1020.2 13.8
29/08:22pm 22.8 25.5 21.4 92 0.9 S 9 13 5 7 1020.3 1020.1 13.4
29/08:00pm 22.7 24.6 21.3 92 0.9 E 13 19 7 10 1020.5 1020.3 13.4
29/07:49pm 22.7 26.0 21.5 93 0.8 ENE 6 20 3 11 1020.3 1020.1 12.0
29/07:30pm 22.5 25.7 21.3 93 0.8 NNE 6 7 3 4 1019.9 1019.7 11.0
29/07:16pm 22.5 25.4 21.1 92 0.9 NE 7 11 4 6 1019.9 1019.7 11.0
29/07:00pm 22.4 24.2 21.2 93 0.8 ENE 13 20 7 11 1019.7 1019.5 11.0
29/06:56pm 22.5 24.7 21.1 92 0.9 ENE 11 20 6 11 1019.7 1019.5 11.0
29/06:38pm 22.4 23.4 21.0 92 0.9 ENE 17 22 9 12 1019.6 1019.4 11.0
29/06:30pm 22.4 23.0 21.0 92 0.9 ENE 19 32 10 17 1019.6 1019.4 10.8
29/06:20pm 22.8 23.3 20.9 89 1.2 ENE 19 32 10 17 1019.4 1019.2 8.8
29/06:00pm 23.4 25.4 20.7 85 1.8 E 11 17 6 9 1019.1 1018.9 8.4

Other Formats:

Comma delimited format used in spreadsheet applications
http://www.bom.gov.au/fwo/IDQ60801/IDQ60801.94370.axf

JavaScript Object Notation format (JSON) in row-major order
http://www.bom.gov.au/fwo/IDQ60801/IDQ60801.94370.json